Terminal Aerodrome Forecast
Issued by NWS

Home | Current Version | Previous Version | Text Only | Print | Product List | Glossary On
Versions: 1 2 3 4 5 6 7 8 9 10 11 12 13 14 15 16 17 18 19 20 21 22 23 24 25 26 27 28 29 30 31 32 33 34 35 36 37 38 39 40 41 42 43 44 45 46 47
000
FTUS41 KBOX 021126
TAFMHT
TAF
KMHT 021126Z 0212/0312 00000KT 1SM BR OVC003
     FM021300 VRB03KT 4SM BR SCT003
     FM021400 VRB03KT P6SM FEW050
     FM021600 21006KT P6SM SCT050
     FM022200 21007KT P6SM SCT050
     FM030000 19006KT P6SM SCT250
     FM030400 25005KT P6SM BKN250
     FM031000 29005KT P6SM SCT015=

USA.gov is the U.S. government's official web portal to all federal, state and local government web resources and services.